sensor_id;sensor_type;location;lat;lon;timestamp;pressure;altitude;pressure_sealevel;temperature;humidity
6524;BME280;3295;38.928;-77.052;2023-02-15T00:01:43;101362.75;;;15.82;36.57
6524;BME280;3295;38.928;-77.052;2023-02-15T00:04:13;101368.47;;;15.75;36.27
6524;BME280;3295;38.928;-77.052;2023-02-15T00:06:42;101379.28;;;15.66;36.59
6524;BME280;3295;38.928;-77.052;2023-02-15T00:09:10;101378.16;;;15.59;37.05
6524;BME280;3295;38.928;-77.052;2023-02-15T00:11:38;101383.28;;;15.37;37.17
6524;BME280;3295;38.928;-77.052;2023-02-15T00:14:19;101388.84;;;15.25;37.70
6524;BME280;3295;38.928;-77.052;2023-02-15T00:16:48;101390.66;;;15.28;37.79
6524;BME280;3295;38.928;-77.052;2023-02-15T00:19:17;101389.03;;;15.30;37.89
6524;BME280;3295;38.928;-77.052;2023-02-15T00:21:46;101386.34;;;15.27;37.85
6524;BME280;3295;38.928;-77.052;2023-02-15T00:24:16;101393.56;;;15.15;37.69
6524;BME280;3295;38.928;-77.052;2023-02-15T00:26:45;101385.13;;;15.19;37.68
6524;BME280;3295;38.928;-77.052;2023-02-15T00:29:14;101397.16;;;15.20;37.93
6524;BME280;3295;38.928;-77.052;2023-02-15T00:31:44;101393.72;;;15.19;37.81
6524;BME280;3295;38.928;-77.052;2023-02-15T00:34:14;101397.06;;;15.17;37.83
6524;BME280;3295;38.928;-77.052;2023-02-15T00:36:43;101402.31;;;15.20;37.85
6524;BME280;3295;38.928;-77.052;2023-02-15T00:39:12;101396.28;;;15.19;38.14
6524;BME280;3295;38.928;-77.052;2023-02-15T00:41:40;101392.84;;;15.19;37.87
6524;BME280;3295;38.928;-77.052;2023-02-15T00:44:08;101398.19;;;15.23;37.94
6524;BME280;3295;38.928;-77.052;2023-02-15T00:46:36;101394.91;;;15.27;38.09
6524;BME280;3295;38.928;-77.052;2023-02-15T00:49:06;101391.63;;;15.32;38.06
6524;BME280;3295;38.928;-77.052;2023-02-15T00:51:33;101402.78;;;15.32;37.98
6524;BME280;3295;38.928;-77.052;2023-02-15T00:54:01;101382.81;;;15.25;38.14
6524;BME280;3295;38.928;-77.052;2023-02-15T00:56:29;101381.41;;;15.11;38.72
6524;BME280;3295;38.928;-77.052;2023-02-15T00:58:57;101386.28;;;15.05;38.72
6524;BME280;3295;38.928;-77.052;2023-02-15T01:01:25;101384.31;;;14.98;39.24
6524;BME280;3295;38.928;-77.052;2023-02-15T01:03:53;101388.91;;;15.06;38.94
6524;BME280;3295;38.928;-77.052;2023-02-15T01:06:22;101378.84;;;15.11;38.90
6524;BME280;3295;38.928;-77.052;2023-02-15T01:08:50;101381.41;;;15.11;38.64
6524;BME280;3295;38.928;-77.052;2023-02-15T01:11:20;101378.63;;;15.06;38.91
6524;BME280;3295;38.928;-77.052;2023-02-15T01:13:49;101395.69;;;15.04;39.01
6524;BME280;3295;38.928;-77.052;2023-02-15T01:16:17;101380.59;;;15.12;39.17
6524;BME280;3295;38.928;-77.052;2023-02-15T01:18:46;101380.59;;;15.12;39.47
6524;BME280;3295;38.928;-77.052;2023-02-15T01:21:17;101390.75;;;15.09;39.82
6524;BME280;3295;38.928;-77.052;2023-02-15T01:23:47;101395.06;;;15.10;39.43
6524;BME280;3295;38.928;-77.052;2023-02-15T01:26:15;101402.22;;;15.17;39.46
6524;BME280;3295;38.928;-77.052;2023-02-15T01:28:43;101396.19;;;15.16;39.73
6524;BME280;3295;38.928;-77.052;2023-02-15T01:31:12;101400.31;;;15.13;39.65
6524;BME280;3295;38.928;-77.052;2023-02-15T01:33:41;101410.03;;;15.20;39.59
6524;BME280;3295;38.928;-77.052;2023-02-15T01:36:09;101424.75;;;15.24;39.50
6524;BME280;3295;38.928;-77.052;2023-02-15T01:38:37;101421.25;;;15.22;39.61
6524;BME280;3295;38.928;-77.052;2023-02-15T01:41:07;101421.56;;;15.09;39.82
6524;BME280;3295;38.928;-77.052;2023-02-15T01:43:50;101431.03;;;15.10;39.78
6524;BME280;3295;38.928;-77.052;2023-02-15T01:46:20;101432.09;;;15.15;39.96
6524;BME280;3295;38.928;-77.052;2023-02-15T01:48:53;101422.50;;;15.11;40.03
6524;BME280;3295;38.928;-77.052;2023-02-15T01:51:24;101428.66;;;15.14;40.10
6524;BME280;3295;38.928;-77.052;2023-02-15T01:53:58;101426.25;;;15.19;40.05
6524;BME280;3295;38.928;-77.052;2023-02-15T01:56:31;101438.75;;;15.10;40.17
6524;BME280;3295;38.928;-77.052;2023-02-15T01:59:04;101441.19;;;15.07;40.52
6524;BME280;3295;38.928;-77.052;2023-02-15T02:01:35;101439.34;;;15.04;40.67
6524;BME280;3295;38.928;-77.052;2023-02-15T02:04:10;101440.19;;;15.03;40.51
6524;BME280;3295;38.928;-77.052;2023-02-15T02:06:41;101434.78;;;14.97;40.78
6524;BME280;3295;38.928;-77.052;2023-02-15T02:09:09;101427.50;;;15.08;40.61
6524;BME280;3295;38.928;-77.052;2023-02-15T02:11:40;101413.63;;;15.03;40.66
6524;BME280;3295;38.928;-77.052;2023-02-15T02:14:11;101422.16;;;15.02;40.51
6524;BME280;3295;38.928;-77.052;2023-02-15T02:16:44;101423.66;;;14.97;40.96
6524;BME280;3295;38.928;-77.052;2023-02-15T02:19:48;101404.59;;;14.71;41.31
6524;BME280;3295;38.928;-77.052;2023-02-15T02:22:49;101409.34;;;14.62;41.55
6524;BME280;3295;38.928;-77.052;2023-02-15T02:25:44;101418.34;;;14.52;42.13
6524;BME280;3295;38.928;-77.052;2023-02-15T02:28:32;101416.84;;;14.57;41.79
6524;BME280;3295;38.928;-77.052;2023-02-15T02:31:23;101426.38;;;14.60;41.96
6524;BME280;3295;38.928;-77.052;2023-02-15T02:34:05;101418.78;;;14.63;41.84
6524;BME280;3295;38.928;-77.052;2023-02-15T02:36:41;101406.97;;;14.66;41.58
6524;BME280;3295;38.928;-77.052;2023-02-15T02:39:23;101410.25;;;14.62;41.78
6524;BME280;3295;38.928;-77.052;2023-02-15T02:42:01;101413.84;;;14.67;42.00
6524;BME280;3295;38.928;-77.052;2023-02-15T02:44:38;101411.50;;;14.72;41.61
6524;BME280;3295;38.928;-77.052;2023-02-15T02:47:13;101419.81;;;14.66;41.45
6524;BME280;3295;38.928;-77.052;2023-02-15T02:49:45;101423.97;;;14.64;41.63
6524;BME280;3295;38.928;-77.052;2023-02-15T02:52:34;101422.50;;;14.69;41.35
6524;BME280;3295;38.928;-77.052;2023-02-15T02:55:03;101413.84;;;14.67;41.26
6524;BME280;3295;38.928;-77.052;2023-02-15T02:57:34;101417.22;;;14.66;41.68
6524;BME280;3295;38.928;-77.052;2023-02-15T03:00:07;101412.22;;;14.69;40.96
6524;BME280;3295;38.928;-77.052;2023-02-15T03:02:39;101401.81;;;14.66;41.10
6524;BME280;3295;38.928;-77.052;2023-02-15T03:05:15;101403.59;;;14.67;40.80
6524;BME280;3295;38.928;-77.052;2023-02-15T03:07:47;101410.34;;;14.65;41.02
6524;BME280;3295;38.928;-77.052;2023-02-15T03:10:18;101403.44;;;14.64;41.01
6524;BME280;3295;38.928;-77.052;2023-02-15T03:12:48;101377.91;;;14.67;40.51
6524;BME280;3295;38.928;-77.052;2023-02-15T03:15:21;101371.16;;;14.69;41.18
6524;BME280;3295;38.928;-77.052;2023-02-15T03:17:53;101362.50;;;14.67;40.90
6524;BME280;3295;38.928;-77.052;2023-02-15T03:20:26;101350.72;;;14.51;41.02
6524;BME280;3295;38.928;-77.052;2023-02-15T03:22:58;101356.13;;;14.38;41.04
6524;BME280;3295;38.928;-77.052;2023-02-15T03:25:31;101353.31;;;14.32;40.60
6524;BME280;3295;38.928;-77.052;2023-02-15T03:28:03;101355.69;;;14.28;41.18
6524;BME280;3295;38.928;-77.052;2023-02-15T03:30:35;101356.91;;;14.16;40.84
6524;BME280;3295;38.928;-77.052;2023-02-15T03:33:04;101346.50;;;14.13;41.25
6524;BME280;3295;38.928;-77.052;2023-02-15T03:35:40;101350.28;;;14.21;40.76
6524;BME280;3295;38.928;-77.052;2023-02-15T03:38:16;101350.41;;;14.24;41.25
6524;BME280;3295;38.928;-77.052;2023-02-15T03:40:46;101355.81;;;14.31;40.73
6524;BME280;3295;38.928;-77.052;2023-02-15T03:43:37;101357.44;;;14.29;40.56
6524;BME280;3295;38.928;-77.052;2023-02-15T03:46:09;101345.34;;;14.26;40.96
6524;BME280;3295;38.928;-77.052;2023-02-15T03:48:42;101331.78;;;14.29;40.29
6524;BME280;3295;38.928;-77.052;2023-02-15T03:51:17;101334.28;;;14.27;39.85
6524;BME280;3295;38.928;-77.052;2023-02-15T03:54:07;101340.16;;;14.24;40.01
6524;BME280;3295;38.928;-77.052;2023-02-15T03:56:37;101331.66;;;14.26;40.07
6524;BME280;3295;38.928;-77.052;2023-02-15T03:59:06;101328.13;;;14.23;40.09
6524;BME280;3295;38.928;-77.052;2023-02-15T04:02:11;101312.72;;;14.23;39.61
6524;BME280;3295;38.928;-77.052;2023-02-15T04:04:46;101298.97;;;14.21;39.92
6524;BME280;3295;38.928;-77.052;2023-02-15T04:07:15;101299.66;;;14.17;39.63
6524;BME280;3295;38.928;-77.052;2023-02-15T04:09:43;101299.97;;;14.04;40.01
6524;BME280;3295;38.928;-77.052;2023-02-15T04:12:29;101293.06;;;14.03;40.16
6524;BME280;3295;38.928;-77.052;2023-02-15T04:14:58;101294.97;;;14.07;40.21
6524;BME280;3295;38.928;-77.052;2023-02-15T04:17:43;101281.44;;;14.11;40.29
6524;BME280;3295;38.928;-77.052;2023-02-15T04:20:11;101280.69;;;14.14;40.61
6524;BME280;3295;38.928;-77.052;2023-02-15T04:22:57;101277.31;;;14.15;40.23
6524;BME280;3295;38.928;-77.052;2023-02-15T04:25:42;101281.31;;;14.08;40.54
6524;BME280;3295;38.928;-77.052;2023-02-15T04:28:10;101285.56;;;14.08;41.59
6524;BME280;3295;38.928;-77.052;2023-02-15T04:30:38;101288.69;;;14.01;40.94
6524;BME280;3295;38.928;-77.052;2023-02-15T04:33:06;101304.94;;;14.01;41.16
6524;BME280;3295;38.928;-77.052;2023-02-15T04:35:34;101316.97;;;14.02;41.40
6524;BME280;3295;38.928;-77.052;2023-02-15T04:38:04;101316.84;;;13.99;41.48
6524;BME280;3295;38.928;-77.052;2023-02-15T04:40:32;101314.91;;;13.94;41.36
6524;BME280;3295;38.928;-77.052;2023-02-15T04:42:59;101311.56;;;13.96;41.70
6524;BME280;3295;38.928;-77.052;2023-02-15T04:45:27;101306.56;;;13.99;41.79
6524;BME280;3295;38.928;-77.052;2023-02-15T04:47:55;101306.72;;;14.02;41.94
6524;BME280;3295;38.928;-77.052;2023-02-15T04:50:23;101306.44;;;13.96;41.69
6524;BME280;3295;38.928;-77.052;2023-02-15T04:52:51;101299.44;;;13.92;42.26
6524;BME280;3295;38.928;-77.052;2023-02-15T04:55:22;101298.66;;;13.95;42.16
6524;BME280;3295;38.928;-77.052;2023-02-15T04:57:50;101294.56;;;13.98;42.26
6524;BME280;3295;38.928;-77.052;2023-02-15T05:00:18;101293.53;;;13.95;42.13
6524;BME280;3295;38.928;-77.052;2023-02-15T05:02:46;101293.75;;;13.99;41.99
6524;BME280;3295;38.928;-77.052;2023-02-15T05:05:15;101288.63;;;13.99;42.12
6524;BME280;3295;38.928;-77.052;2023-02-15T05:07:44;101279.03;;;13.95;42.19
6524;BME280;3295;38.928;-77.052;2023-02-15T05:10:12;101287.50;;;13.93;42.23
6524;BME280;3295;38.928;-77.052;2023-02-15T05:12:42;101291.41;;;13.84;42.48
6524;BME280;3295;38.928;-77.052;2023-02-15T05:15:09;101293.91;;;13.83;43.04
6524;BME280;3295;38.928;-77.052;2023-02-15T05:17:37;101301.66;;;13.84;43.04
6524;BME280;3295;38.928;-77.052;2023-02-15T05:20:06;101302.53;;;13.85;43.17
6524;BME280;3295;38.928;-77.052;2023-02-15T05:22:34;101302.41;;;13.82;43.74
6524;BME280;3295;38.928;-77.052;2023-02-15T05:25:02;101306.19;;;13.90;43.63
6524;BME280;3295;38.928;-77.052;2023-02-15T05:27:49;101291.81;;;13.94;43.70
6524;BME280;3295;38.928;-77.052;2023-02-15T05:30:33;101284.31;;;13.98;43.98
6524;BME280;3295;38.928;-77.052;2023-02-15T05:33:01;101282.63;;;13.99;43.71
6524;BME280;3295;38.928;-77.052;2023-02-15T05:35:29;101277.69;;;14.03;43.72
6524;BME280;3295;38.928;-77.052;2023-02-15T05:37:57;101275.00;;;14.00;43.78
6524;BME280;3295;38.928;-77.052;2023-02-15T05:40:25;101279.16;;;13.98;44.33
6524;BME280;3295;38.928;-77.052;2023-02-15T05:42:56;101275.66;;;13.96;44.45
6524;BME280;3295;38.928;-77.052;2023-02-15T05:45:24;101268.16;;;13.80;44.79
6524;BME280;3295;38.928;-77.052;2023-02-15T05:47:52;101265.03;;;13.87;45.09
6524;BME280;3295;38.928;-77.052;2023-02-15T05:50:20;101282.31;;;13.91;44.94
6524;BME280;3295;38.928;-77.052;2023-02-15T05:52:47;101285.53;;;13.87;45.07
6524;BME280;3295;38.928;-77.052;2023-02-15T05:55:15;101289.28;;;13.95;45.14
6524;BME280;3295;38.928;-77.052;2023-02-15T05:57:43;101283.41;;;13.98;45.35
6524;BME280;3295;38.928;-77.052;2023-02-15T06:00:14;101272.34;;;13.99;45.34
6524;BME280;3295;38.928;-77.052;2023-02-15T06:02:42;101255.16;;;13.96;45.41
6524;BME280;3295;38.928;-77.052;2023-02-15T06:05:10;101253.53;;;13.98;45.63
6524;BME280;3295;38.928;-77.052;2023-02-15T06:07:37;101258.41;;;13.92;45.73
6524;BME280;3295;38.928;-77.052;2023-02-15T06:10:06;101267.91;;;13.95;46.13
6524;BME280;3295;38.928;-77.052;2023-02-15T06:12:34;101271.47;;;13.98;46.02
6524;BME280;3295;38.928;-77.052;2023-02-15T06:15:02;101271.31;;;13.94;46.40
6524;BME280;3295;38.928;-77.052;2023-02-15T06:17:32;101271.16;;;13.91;46.69
6524;BME280;3295;38.928;-77.052;2023-02-15T06:20:00;101271.03;;;13.87;46.82
6524;BME280;3295;38.928;-77.052;2023-02-15T06:22:27;101274.59;;;13.91;46.81
6524;BME280;3295;38.928;-77.052;2023-02-15T06:24:55;101277.03;;;13.88;46.84
6524;BME280;3295;38.928;-77.052;2023-02-15T06:27:24;101287.44;;;13.91;47.06
6524;BME280;3295;38.928;-77.052;2023-02-15T06:29:52;101282.31;;;13.91;47.25
6524;BME280;3295;38.928;-77.052;2023-02-15T06:32:20;101277.78;;;13.85;47.78
6524;BME280;3295;38.928;-77.052;2023-02-15T06:34:50;101275.94;;;13.83;47.73
6524;BME280;3295;38.928;-77.052;2023-02-15T06:37:17;101264.22;;;13.88;47.62
6524;BME280;3295;38.928;-77.052;2023-02-15T06:39:45;101251.34;;;13.67;47.75
6524;BME280;3295;38.928;-77.052;2023-02-15T06:42:13;101231.97;;;13.74;48.06
6524;BME280;3295;38.928;-77.052;2023-02-15T06:44:41;101232.72;;;13.71;48.52
6524;BME280;3295;38.928;-77.052;2023-02-15T06:47:09;101239.41;;;13.68;48.41
6524;BME280;3295;38.928;-77.052;2023-02-15T06:49:37;101240.63;;;13.76;48.24
6524;BME280;3295;38.928;-77.052;2023-02-15T06:52:06;101258.22;;;13.68;48.82
6524;BME280;3295;38.928;-77.052;2023-02-15T06:54:34;101265.66;;;13.62;48.75
6524;BME280;3295;38.928;-77.052;2023-02-15T06:57:02;101279.22;;;13.60;49.28
6524;BME280;3295;38.928;-77.052;2023-02-15T06:59:30;101261.81;;;13.52;49.08
6524;BME280;3295;38.928;-77.052;2023-02-15T07:01:58;101275.88;;;13.43;49.32
6524;BME280;3295;38.928;-77.052;2023-02-15T07:04:26;101269.00;;;13.42;49.47
6524;BME280;3295;38.928;-77.052;2023-02-15T07:06:56;101259.63;;;13.42;49.67
6524;BME280;3295;38.928;-77.052;2023-02-15T07:09:25;101253.78;;;13.45;49.62
6524;BME280;3295;38.928;-77.052;2023-02-15T07:11:53;101239.13;;;13.42;49.63
6524;BME280;3295;38.928;-77.052;2023-02-15T07:14:38;101217.84;;;13.43;49.91
6524;BME280;3295;38.928;-77.052;2023-02-15T07:17:06;101194.25;;;13.50;50.20
6524;BME280;3295;38.928;-77.052;2023-02-15T07:19:34;101187.75;;;13.39;50.04
6524;BME280;3295;38.928;-77.052;2023-02-15T07:22:02;101215.03;;;13.37;50.23
6524;BME280;3295;38.928;-77.052;2023-02-15T07:24:32;101221.75;;;13.35;50.68
6524;BME280;3295;38.928;-77.052;2023-02-15T07:27:00;101228.75;;;13.39;50.76
6524;BME280;3295;38.928;-77.052;2023-02-15T07:29:28;101246.16;;;13.46;50.62
6524;BME280;3295;38.928;-77.052;2023-02-15T07:31:56;101265.84;;;13.47;50.39
6524;BME280;3295;38.928;-77.052;2023-02-15T07:34:24;101262.63;;;13.51;50.52
6524;BME280;3295;38.928;-77.052;2023-02-15T07:36:52;101260.31;;;13.58;50.22
6524;BME280;3295;38.928;-77.052;2023-02-15T07:39:20;101250.06;;;13.58;50.11
6524;BME280;3295;38.928;-77.052;2023-02-15T07:41:49;101237.25;;;13.58;50.15
6524;BME280;3295;38.928;-77.052;2023-02-15T07:44:17;101255.19;;;13.58;50.15
6524;BME280;3295;38.928;-77.052;2023-02-15T07:46:45;101246.44;;;13.52;50.07
6524;BME280;3295;38.928;-77.052;2023-02-15T07:49:12;101230.94;;;13.49;50.13
6524;BME280;3295;38.928;-77.052;2023-02-15T07:51:40;101242.78;;;13.47;50.40
6524;BME280;3295;38.928;-77.052;2023-02-15T07:54:08;101228.38;;;13.49;50.10
6524;BME280;3295;38.928;-77.052;2023-02-15T07:56:36;101217.31;;;13.50;49.62
6524;BME280;3295;38.928;-77.052;2023-02-15T07:59:05;101237.81;;;13.50;49.86
6524;BME280;3295;38.928;-77.052;2023-02-15T08:01:35;101234.16;;;13.45;49.72
6524;BME280;3295;38.928;-77.052;2023-02-15T08:04:04;101223.91;;;13.45;50.20
6524;BME280;3295;38.928;-77.052;2023-02-15T08:06:34;101213.66;;;13.45;49.98
6524;BME280;3295;38.928;-77.052;2023-02-15T08:09:04;101189.78;;;13.46;49.91
6524;BME280;3295;38.928;-77.052;2023-02-15T08:11:33;101169.00;;;13.40;50.02
6524;BME280;3295;38.928;-77.052;2023-02-15T08:14:06;101197.91;;;13.36;50.22
6524;BME280;3295;38.928;-77.052;2023-02-15T08:16:36;101193.75;;;13.40;50.75
6524;BME280;3295;38.928;-77.052;2023-02-15T08:19:06;101163.72;;;13.36;50.10
6524;BME280;3295;38.928;-77.052;2023-02-15T08:21:35;101116.03;;;13.39;50.20
6524;BME280;3295;38.928;-77.052;2023-02-15T08:24:05;101089.88;;;13.27;50.41
6524;BME280;3295;38.928;-77.052;2023-02-15T08:26:33;101113.66;;;13.23;51.15
6524;BME280;3295;38.928;-77.052;2023-02-15T08:29:01;101137.44;;;13.21;50.48
6524;BME280;3295;38.928;-77.052;2023-02-15T08:31:31;101155.00;;;13.32;50.74
6524;BME280;3295;38.928;-77.052;2023-02-15T08:34:00;101170.38;;;13.32;50.50
6524;BME280;3295;38.928;-77.052;2023-02-15T08:36:29;101179.25;;;13.40;50.39
6524;BME280;3295;38.928;-77.052;2023-02-15T08:38:58;101150.41;;;13.44;50.20
6524;BME280;3295;38.928;-77.052;2023-02-15T08:41:29;101148.78;;;13.46;50.66
6524;BME280;3295;38.928;-77.052;2023-02-15T08:43:58;101146.09;;;13.43;50.60
6524;BME280;3295;38.928;-77.052;2023-02-15T08:46:27;101133.16;;;13.40;50.72
6524;BME280;3295;38.928;-77.052;2023-02-15T08:48:57;101122.78;;;13.37;51.12
6524;BME280;3295;38.928;-77.052;2023-02-15T08:51:26;101086.78;;;13.34;51.16
6524;BME280;3295;38.928;-77.052;2023-02-15T08:53:57;101080.06;;;13.36;51.08
6524;BME280;3295;38.928;-77.052;2023-02-15T08:56:26;101105.03;;;13.42;51.43
6524;BME280;3295;38.928;-77.052;2023-02-15T08:58:55;101111.91;;;13.43;51.28
6524;BME280;3295;38.928;-77.052;2023-02-15T09:01:24;101120.63;;;13.46;51.32
6524;BME280;3295;38.928;-77.052;2023-02-15T09:03:57;101132.97;;;13.36;51.64
6524;BME280;3295;38.928;-77.052;2023-02-15T09:06:26;101127.91;;;13.37;51.59
6524;BME280;3295;38.928;-77.052;2023-02-15T09:08:55;101117.75;;;13.39;51.00
6524;BME280;3295;38.928;-77.052;2023-02-15T09:11:25;101125.53;;;13.42;51.15
6524;BME280;3295;38.928;-77.052;2023-02-15T09:13:57;101135.03;;;13.44;51.24
6524;BME280;3295;38.928;-77.052;2023-02-15T09:16:27;101145.56;;;13.50;50.94
6524;BME280;3295;38.928;-77.052;2023-02-15T09:18:58;101150.69;;;13.50;50.41
6524;BME280;3295;38.928;-77.052;2023-02-15T09:21:27;101161.69;;;13.48;50.75
6524;BME280;3295;38.928;-77.052;2023-02-15T09:23:56;101154.88;;;13.29;50.58
6524;BME280;3295;38.928;-77.052;2023-02-15T09:26:27;101151.22;;;13.43;50.45
6524;BME280;3295;38.928;-77.052;2023-02-15T09:28:56;101148.06;;;13.49;50.51
6524;BME280;3295;38.928;-77.052;2023-02-15T09:31:26;101155.09;;;13.55;49.93
6524;BME280;3295;38.928;-77.052;2023-02-15T09:33:57;101158.88;;;13.63;49.68
6524;BME280;3295;38.928;-77.052;2023-02-15T09:36:28;101149.19;;;13.56;49.64
6524;BME280;3295;38.928;-77.052;2023-02-15T09:38:58;101157.44;;;13.48;49.81
6524;BME280;3295;38.928;-77.052;2023-02-15T09:41:48;101166.06;;;13.50;50.00
6524;BME280;3295;38.928;-77.052;2023-02-15T09:44:25;101172.13;;;13.52;49.71
6524;BME280;3295;38.928;-77.052;2023-02-15T09:47:19;101178.09;;;13.53;50.17
6524;BME280;3295;38.928;-77.052;2023-02-15T09:49:57;101178.31;;;13.58;49.34
6524;BME280;3295;38.928;-77.052;2023-02-15T09:52:41;101193.31;;;13.48;49.33
6524;BME280;3295;38.928;-77.052;2023-02-15T09:55:25;101206.19;;;13.50;49.53
6524;BME280;3295;38.928;-77.052;2023-02-15T09:58:06;101225.25;;;13.57;49.17
6524;BME280;3295;38.928;-77.052;2023-02-15T10:00:41;101234.56;;;13.55;49.38
6524;BME280;3295;38.928;-77.052;2023-02-15T10:03:22;101238.88;;;13.56;49.37
6524;BME280;3295;38.928;-77.052;2023-02-15T10:06:02;101234.84;;;13.61;49.07
6524;BME280;3295;38.928;-77.052;2023-02-15T10:08:47;101257.47;;;13.71;49.53
6524;BME280;3295;38.928;-77.052;2023-02-15T10:11:25;101258.56;;;13.76;48.84
6524;BME280;3295;38.928;-77.052;2023-02-15T10:14:20;101259.38;;;13.75;48.80
6524;BME280;3295;38.928;-77.052;2023-02-15T10:17:06;101229.41;;;13.74;48.73
6524;BME280;3295;38.928;-77.052;2023-02-15T10:19:44;101215.22;;;13.61;48.56
6524;BME280;3295;38.928;-77.052;2023-02-15T10:22:28;101228.91;;;13.62;48.85
6524;BME280;3295;38.928;-77.052;2023-02-15T10:25:11;101244.22;;;13.60;49.06
6524;BME280;3295;38.928;-77.052;2023-02-15T10:27:46;101249.41;;;13.62;48.64
6524;BME280;3295;38.928;-77.052;2023-02-15T10:30:14;101245.34;;;13.67;48.71
6524;BME280;3295;38.928;-77.052;2023-02-15T10:32:51;101242.09;;;13.71;48.60
6524;BME280;3295;38.928;-77.052;2023-02-15T10:35:25;101232.66;;;13.70;48.73
6524;BME280;3295;38.928;-77.052;2023-02-15T10:38:04;101256.44;;;13.66;49.10
6524;BME280;3295;38.928;-77.052;2023-02-15T10:40:43;101259.00;;;13.66;48.94
6524;BME280;3295;38.928;-77.052;2023-02-15T10:43:26;101248.72;;;13.66;49.25
6524;BME280;3295;38.928;-77.052;2023-02-15T10:46:05;101247.09;;;13.68;48.95
6524;BME280;3295;38.928;-77.052;2023-02-15T10:49:17;101238.94;;;13.57;48.77
6524;BME280;3295;38.928;-77.052;2023-02-15T10:52:00;101225.94;;;13.52;49.12
6524;BME280;3295;38.928;-77.052;2023-02-15T10:54:37;101233.66;;;13.54;49.28
6524;BME280;3295;38.928;-77.052;2023-02-15T10:57:15;101220.94;;;13.56;49.25
6524;BME280;3295;38.928;-77.052;2023-02-15T10:59:59;101203.94;;;13.58;49.42
6524;BME280;3295;38.928;-77.052;2023-02-15T11:02:39;101205.63;;;13.57;49.11
6524;BME280;3295;38.928;-77.052;2023-02-15T11:05:34;101205.44;;;13.52;49.14
6524;BME280;3295;38.928;-77.052;2023-02-15T11:08:08;101188.31;;;13.51;49.32
6524;BME280;3295;38.928;-77.052;2023-02-15T11:10:41;101169.44;;;13.49;49.26
6524;BME280;3295;38.928;-77.052;2023-02-15T11:13:13;101162.00;;;13.56;49.22
6524;BME280;3295;38.928;-77.052;2023-02-15T11:15:44;101156.94;;;13.57;49.60
6524;BME280;3295;38.928;-77.052;2023-02-15T11:18:15;101172.25;;;13.56;49.23
6524;BME280;3295;38.928;-77.052;2023-02-15T11:20:52;101155.53;;;13.44;49.16
6524;BME280;3295;38.928;-77.052;2023-02-15T11:23:24;101157.00;;;13.39;49.49
6524;BME280;3295;38.928;-77.052;2023-02-15T11:25:57;101149.22;;;13.36;49.95
6524;BME280;3295;38.928;-77.052;2023-02-15T11:28:30;101164.53;;;13.35;50.36
6524;BME280;3295;38.928;-77.052;2023-02-15T11:31:02;101182.97;;;13.28;50.43
6524;BME280;3295;38.928;-77.052;2023-02-15T11:33:42;101173.63;;;13.28;50.27
6524;BME280;3295;38.928;-77.052;2023-02-15T11:36:14;101171.84;;;13.27;50.51
6524;BME280;3295;38.928;-77.052;2023-02-15T11:38:43;101155.75;;;13.30;50.22
6524;BME280;3295;38.928;-77.052;2023-02-15T11:41:19;101147.88;;;13.25;50.81
6524;BME280;3295;38.928;-77.052;2023-02-15T11:43:54;101163.38;;;13.28;51.01
6524;BME280;3295;38.928;-77.052;2023-02-15T11:46:24;101153.84;;;13.26;51.04
6524;BME280;3295;38.928;-77.052;2023-02-15T11:48:52;101155.09;;;13.34;50.99
6524;BME280;3295;38.928;-77.052;2023-02-15T11:51:21;101148.13;;;13.31;50.45
6524;BME280;3295;38.928;-77.052;2023-02-15T11:53:50;101133.44;;;13.27;50.98
6524;BME280;3295;38.928;-77.052;2023-02-15T11:56:22;101141.13;;;13.27;51.02
6524;BME280;3295;38.928;-77.052;2023-02-15T11:58:53;101160.63;;;13.24;51.72
6524;BME280;3295;38.928;-77.052;2023-02-15T12:01:29;101146.13;;;13.24;51.01
6524;BME280;3295;38.928;-77.052;2023-02-15T12:04:03;101152.13;;;13.25;51.42
6524;BME280;3295;38.928;-77.052;2023-02-15T12:06:34;101137.50;;;13.22;51.67
6524;BME280;3295;38.928;-77.052;2023-02-15T12:09:21;101149.22;;;13.17;51.84
6524;BME280;3295;38.928;-77.052;2023-02-15T12:12:21;101158.22;;;13.09;52.25
6524;BME280;3295;38.928;-77.052;2023-02-15T12:14:52;101167.66;;;13.10;53.16
6524;BME280;3295;38.928;-77.052;2023-02-15T12:17:23;101167.97;;;13.16;54.14
6524;BME280;3295;38.928;-77.052;2023-02-15T12:19:57;101203.22;;;13.22;54.99
6524;BME280;3295;38.928;-77.052;2023-02-15T12:22:28;101186.25;;;13.24;56.07
6524;BME280;3295;38.928;-77.052;2023-02-15T12:25:00;101166.81;;;13.29;55.74
6524;BME280;3295;38.928;-77.052;2023-02-15T12:27:32;101146.53;;;13.33;56.40
6524;BME280;3295;38.928;-77.052;2023-02-15T12:30:04;101132.53;;;13.25;58.94
6524;BME280;3295;38.928;-77.052;2023-02-15T12:32:36;101143.38;;;13.20;60.15
6524;BME280;3295;38.928;-77.052;2023-02-15T12:35:16;101163.84;;;13.20;64.17
6524;BME280;3295;38.928;-77.052;2023-02-15T12:37:53;101170.00;;;13.23;65.91
6524;BME280;3295;38.928;-77.052;2023-02-15T12:40:24;101143.56;;;13.24;66.58
6524;BME280;3295;38.928;-77.052;2023-02-15T12:42:55;101157.19;;;13.23;67.00
6524;BME280;3295;38.928;-77.052;2023-02-15T12:45:26;101154.50;;;13.20;65.18
6524;BME280;3295;38.928;-77.052;2023-02-15T12:48:14;101161.75;;;13.11;66.44
6524;BME280;3295;38.928;-77.052;2023-02-15T12:50:44;101153.03;;;13.07;67.52
6524;BME280;3295;38.928;-77.052;2023-02-15T12:53:16;101157.16;;;13.04;67.31
6524;BME280;3295;38.928;-77.052;2023-02-15T12:55:54;101169.22;;;13.06;66.96
6524;BME280;3295;38.928;-77.052;2023-02-15T12:58:25;101169.13;;;13.05;67.96
6524;BME280;3295;38.928;-77.052;2023-02-15T13:01:04;101170.72;;;13.21;66.88
6524;BME280;3295;38.928;-77.052;2023-02-15T13:03:40;101168.25;;;13.22;65.64
6524;BME280;3295;38.928;-77.052;2023-02-15T13:06:18;101165.81;;;13.25;65.56
6524;BME280;3295;38.928;-77.052;2023-02-15T13:08:48;101189.13;;;13.31;65.53
6524;BME280;3295;38.928;-77.052;2023-02-15T13:11:21;101168.25;;;13.22;66.36
6524;BME280;3295;38.928;-77.052;2023-02-15T13:13:55;101176.19;;;13.28;68.51
6524;BME280;3295;38.928;-77.052;2023-02-15T13:16:30;101176.06;;;13.25;67.60
6524;BME280;3295;38.928;-77.052;2023-02-15T13:19:03;101168.69;;;13.33;66.95